Dubuque, IA

5:52 AM CDT on September 01, 2015 (GMT -0500)
Eagle Valley | | Change Station
CLOSE
Current Station
Personal Weather Station
Location: Dubuque, IA
Elevation: 837 ft
Nearby Weather Stations

Elev 837 ft 42.54 °N, 90.66 °W | Updated 2 minutes ago

Fog
Fog
70.5 °F
Feels Like 70.5 °F
N
0.0
Wind Variable Wind from East
Gusts 0.0 mph

Today
High -- | Low -- °F
--% Chance of Precip.
Yesterday
High -- | Low -- °F
Precip. -- in
6:27 AM 7:37 PM
Waning Gibbous, 90% visible
Pressure 30.02 in
Visibility 1.5 miles
Clouds Scattered Clouds 5000 ft
Scattered Clouds 5500 ft
Dew Point 69 °F
Humidity 96%
Rainfall 0.00 in
Snow Depth Not available.
UV 0 out of 12
Pollen 10.30 out of 12
Air Quality Not available.
Flu Activity Not available.
METAR KMRJ 011035Z AUTO 16004KT 1 1/2SM BR SCT050 SCT055 21/20 A3002 RMK AO2
Pressure 30.02 in
Visibility 1.5 miles
Clouds Scattered Clouds 5000 ft
Scattered Clouds 5500 ft
Dew Point 69 °F
Humidity 96%
Rainfall 0.00 in
Snow Depth Not available.
UV 0 out of 12
Pollen 10.30 out of 12
Air Quality Not available.
Flu Activity Not available.
METAR KMRJ 011035Z AUTO 16004KT 1 1/2SM BR SCT050 SCT055 21/20 A3002 RMK AO2

10-Day Weather Forecast

×

Almanac

Astronomy

Sep. 01, 2015 Rise Set
Actual Time
Civil Twilight
Nautical Twilight
Astronomical Twilight
Moon
Length of Visible Light
Length of Day
Tomorrow will be .
, % of the Moon is Illuminated

Today's Extremes

State Highs State Lows

Community

WunderPhotos

Upload Photos

1,851,501 photos uploaded!

WunderBlogs® & News

Nearby

Air Quality

  Air Quality AQ Index Pollutant
Not available.

Snow Depth

Station Depth Elevation

Earthquake Activity

City Distance Mag. Time & Date
Minimum magnitude displayed is 2.5.

Coastal Water Temperatures

Place Temperature

Stations

Nearby Weather Stations

Station Location Temp. Windchill Dew Point Humidity Wind Precip. Elev Updated Type